sensor_id;sensor_type;location;lat;lon;timestamp;temperature;humidity
52167;DHT22;38149;52.666;6.428;2022-08-03T00:00:05;21.80;99.90
52167;DHT22;38149;52.666;6.428;2022-08-03T00:02:32;21.80;99.90
52167;DHT22;38149;52.666;6.428;2022-08-03T00:04:58;21.80;99.90
52167;DHT22;38149;52.666;6.428;2022-08-03T00:07:23;21.70;99.90
52167;DHT22;38149;52.666;6.428;2022-08-03T00:09:49;21.70;99.90
52167;DHT22;38149;52.666;6.428;2022-08-03T00:12:15;21.70;99.90
52167;DHT22;38149;52.666;6.428;2022-08-03T00:14:41;21.60;99.90
52167;DHT22;38149;52.666;6.428;2022-08-03T00:17:06;21.60;99.90
52167;DHT22;38149;52.666;6.428;2022-08-03T00:19:32;21.60;99.90
52167;DHT22;38149;52.666;6.428;2022-08-03T00:21:58;21.60;99.90
52167;DHT22;38149;52.666;6.428;2022-08-03T00:24:24;21.50;99.90
52167;DHT22;38149;52.666;6.428;2022-08-03T00:26:49;21.50;99.90
52167;DHT22;38149;52.666;6.428;2022-08-03T00:29:15;21.50;99.90
52167;DHT22;38149;52.666;6.428;2022-08-03T00:31:41;21.40;99.90
52167;DHT22;38149;52.666;6.428;2022-08-03T00:34:06;21.40;99.90
52167;DHT22;38149;52.666;6.428;2022-08-03T00:36:32;21.40;99.90
52167;DHT22;38149;52.666;6.428;2022-08-03T00:38:58;21.40;99.90
52167;DHT22;38149;52.666;6.428;2022-08-03T00:41:24;21.30;99.90
52167;DHT22;38149;52.666;6.428;2022-08-03T00:43:50;21.30;99.90
52167;DHT22;38149;52.666;6.428;2022-08-03T00:46:15;21.30;99.90
52167;DHT22;38149;52.666;6.428;2022-08-03T00:48:41;21.30;99.90
52167;DHT22;38149;52.666;6.428;2022-08-03T00:51:07;21.30;99.90
52167;DHT22;38149;52.666;6.428;2022-08-03T00:53:34;21.30;99.90
52167;DHT22;38149;52.666;6.428;2022-08-03T00:56:00;21.30;99.90
52167;DHT22;38149;52.666;6.428;2022-08-03T00:58:26;21.30;99.90
52167;DHT22;38149;52.666;6.428;2022-08-03T01:00:52;21.20;99.90
52167;DHT22;38149;52.666;6.428;2022-08-03T01:03:18;21.20;99.90
52167;DHT22;38149;52.666;6.428;2022-08-03T01:08:57;21.10;99.90
52167;DHT22;38149;52.666;6.428;2022-08-03T01:11:41;21.10;99.90
52167;DHT22;38149;52.666;6.428;2022-08-03T01:14:16;21.10;99.90
52167;DHT22;38149;52.666;6.428;2022-08-03T01:16:56;21.00;99.90
52167;DHT22;38149;52.666;6.428;2022-08-03T01:19:48;21.00;99.90
52167;DHT22;38149;52.666;6.428;2022-08-03T01:28:11;20.90;99.90
52167;DHT22;38149;52.666;6.428;2022-08-03T01:30:45;20.90;99.90
52167;DHT22;38149;52.666;6.428;2022-08-03T01:33:16;20.90;99.90
52167;DHT22;38149;52.666;6.428;2022-08-03T01:36:02;20.80;99.90
52167;DHT22;38149;52.666;6.428;2022-08-03T01:38:41;20.80;99.90
52167;DHT22;38149;52.666;6.428;2022-08-03T01:41:16;20.80;99.90
52167;DHT22;38149;52.666;6.428;2022-08-03T01:43:47;20.80;99.90
52167;DHT22;38149;52.666;6.428;2022-08-03T01:46:16;20.70;99.90
52167;DHT22;38149;52.666;6.428;2022-08-03T01:48:47;20.70;99.90
52167;DHT22;38149;52.666;6.428;2022-08-03T01:51:14;20.70;99.90
52167;DHT22;38149;52.666;6.428;2022-08-03T01:53:43;20.70;99.90
52167;DHT22;38149;52.666;6.428;2022-08-03T01:56:10;20.60;99.90
52167;DHT22;38149;52.666;6.428;2022-08-03T01:58:37;20.70;99.90
52167;DHT22;38149;52.666;6.428;2022-08-03T02:01:05;20.60;99.90
52167;DHT22;38149;52.666;6.428;2022-08-03T02:03:35;20.60;99.90
52167;DHT22;38149;52.666;6.428;2022-08-03T02:06:04;20.50;99.90
52167;DHT22;38149;52.666;6.428;2022-08-03T02:08:31;20.50;99.90
52167;DHT22;38149;52.666;6.428;2022-08-03T02:10:58;20.50;99.90
52167;DHT22;38149;52.666;6.428;2022-08-03T02:13:25;20.50;99.90
52167;DHT22;38149;52.666;6.428;2022-08-03T02:15:53;20.60;99.90
52167;DHT22;38149;52.666;6.428;2022-08-03T02:18:20;20.40;99.90
52167;DHT22;38149;52.666;6.428;2022-08-03T02:20:47;20.40;99.90
52167;DHT22;38149;52.666;6.428;2022-08-03T02:23:15;20.40;99.90
52167;DHT22;38149;52.666;6.428;2022-08-03T02:25:45;20.30;99.90
52167;DHT22;38149;52.666;6.428;2022-08-03T02:28:18;20.30;99.90
52167;DHT22;38149;52.666;6.428;2022-08-03T02:30:52;20.30;99.90
52167;DHT22;38149;52.666;6.428;2022-08-03T02:33:25;20.50;99.90
52167;DHT22;38149;52.666;6.428;2022-08-03T02:35:56;20.40;99.90
52167;DHT22;38149;52.666;6.428;2022-08-03T02:38:27;20.40;99.90
52167;DHT22;38149;52.666;6.428;2022-08-03T02:40:57;20.30;99.90
52167;DHT22;38149;52.666;6.428;2022-08-03T02:43:24;20.20;99.90
52167;DHT22;38149;52.666;6.428;2022-08-03T02:45:50;20.30;99.90
52167;DHT22;38149;52.666;6.428;2022-08-03T02:48:22;20.30;99.90
52167;DHT22;38149;52.666;6.428;2022-08-03T02:50:53;20.10;99.90
52167;DHT22;38149;52.666;6.428;2022-08-03T02:53:20;20.10;99.90
52167;DHT22;38149;52.666;6.428;2022-08-03T02:55:47;20.10;99.90
52167;DHT22;38149;52.666;6.428;2022-08-03T02:58:16;20.10;99.90
52167;DHT22;38149;52.666;6.428;2022-08-03T03:00:43;20.10;99.90
52167;DHT22;38149;52.666;6.428;2022-08-03T03:03:10;20.00;99.90
52167;DHT22;38149;52.666;6.428;2022-08-03T03:05:36;20.00;99.90
52167;DHT22;38149;52.666;6.428;2022-08-03T03:08:03;20.00;99.90
52167;DHT22;38149;52.666;6.428;2022-08-03T03:10:29;19.90;99.90
52167;DHT22;38149;52.666;6.428;2022-08-03T03:12:57;19.90;99.90
52167;DHT22;38149;52.666;6.428;2022-08-03T03:15:25;19.90;99.90
52167;DHT22;38149;52.666;6.428;2022-08-03T03:17:52;19.90;99.90
52167;DHT22;38149;52.666;6.428;2022-08-03T03:20:19;19.90;99.90
52167;DHT22;38149;52.666;6.428;2022-08-03T03:22:47;19.90;99.90
52167;DHT22;38149;52.666;6.428;2022-08-03T03:25:14;19.80;99.90
52167;DHT22;38149;52.666;6.428;2022-08-03T03:27:40;19.90;99.90
52167;DHT22;38149;52.666;6.428;2022-08-03T03:30:06;19.90;99.90
52167;DHT22;38149;52.666;6.428;2022-08-03T03:32:32;19.80;99.90
52167;DHT22;38149;52.666;6.428;2022-08-03T03:34:59;19.80;99.90
52167;DHT22;38149;52.666;6.428;2022-08-03T03:37:28;19.80;99.90
52167;DHT22;38149;52.666;6.428;2022-08-03T03:39:54;19.80;99.90
52167;DHT22;38149;52.666;6.428;2022-08-03T03:42:20;19.80;99.90
52167;DHT22;38149;52.666;6.428;2022-08-03T03:44:46;19.80;99.90
52167;DHT22;38149;52.666;6.428;2022-08-03T03:47:12;19.80;99.90
52167;DHT22;38149;52.666;6.428;2022-08-03T03:49:39;19.70;99.90
52167;DHT22;38149;52.666;6.428;2022-08-03T03:52:05;19.70;99.90
52167;DHT22;38149;52.666;6.428;2022-08-03T03:54:41;19.70;99.90
52167;DHT22;38149;52.666;6.428;2022-08-03T03:57:09;19.70;99.90
52167;DHT22;38149;52.666;6.428;2022-08-03T03:59:40;19.70;99.90
52167;DHT22;38149;52.666;6.428;2022-08-03T04:02:07;19.70;99.90
52167;DHT22;38149;52.666;6.428;2022-08-03T04:04:35;19.70;99.90
52167;DHT22;38149;52.666;6.428;2022-08-03T04:07:23;19.50;99.90
52167;DHT22;38149;52.666;6.428;2022-08-03T04:10:28;19.60;99.90
52167;DHT22;38149;52.666;6.428;2022-08-03T04:13:16;19.60;99.90
52167;DHT22;38149;52.666;6.428;2022-08-03T04:15:42;19.50;99.90
52167;DHT22;38149;52.666;6.428;2022-08-03T04:18:11;19.50;99.90
52167;DHT22;38149;52.666;6.428;2022-08-03T04:20:39;19.50;99.90
52167;DHT22;38149;52.666;6.428;2022-08-03T04:23:09;19.60;99.90
52167;DHT22;38149;52.666;6.428;2022-08-03T04:25:36;19.50;99.90
52167;DHT22;38149;52.666;6.428;2022-08-03T04:28:04;19.50;99.90
52167;DHT22;38149;52.666;6.428;2022-08-03T04:30:32;19.50;99.90
52167;DHT22;38149;52.666;6.428;2022-08-03T04:33:01;19.60;99.90
52167;DHT22;38149;52.666;6.428;2022-08-03T04:35:32;19.50;99.90
52167;DHT22;38149;52.666;6.428;2022-08-03T04:38:05;19.50;99.90
52167;DHT22;38149;52.666;6.428;2022-08-03T04:40:36;19.50;99.90
52167;DHT22;38149;52.666;6.428;2022-08-03T04:43:05;19.40;99.90
52167;DHT22;38149;52.666;6.428;2022-08-03T04:45:34;19.50;99.90
52167;DHT22;38149;52.666;6.428;2022-08-03T04:48:00;19.50;99.90
52167;DHT22;38149;52.666;6.428;2022-08-03T04:50:27;19.50;99.90
52167;DHT22;38149;52.666;6.428;2022-08-03T04:55:25;19.50;99.90
52167;DHT22;38149;52.666;6.428;2022-08-03T04:57:52;19.50;99.90
52167;DHT22;38149;52.666;6.428;2022-08-03T05:00:18;19.50;99.90
52167;DHT22;38149;52.666;6.428;2022-08-03T05:02:44;19.50;99.90
52167;DHT22;38149;52.666;6.428;2022-08-03T05:05:10;19.50;99.90
52167;DHT22;38149;52.666;6.428;2022-08-03T05:07:36;19.50;99.90
52167;DHT22;38149;52.666;6.428;2022-08-03T05:10:06;19.50;99.90
52167;DHT22;38149;52.666;6.428;2022-08-03T05:12:33;19.60;99.90
52167;DHT22;38149;52.666;6.428;2022-08-03T05:15:00;19.60;99.90
52167;DHT22;38149;52.666;6.428;2022-08-03T05:17:27;19.60;99.90
52167;DHT22;38149;52.666;6.428;2022-08-03T05:19:53;19.60;99.90
52167;DHT22;38149;52.666;6.428;2022-08-03T05:22:20;19.60;99.90
52167;DHT22;38149;52.666;6.428;2022-08-03T05:24:46;19.60;99.90
52167;DHT22;38149;52.666;6.428;2022-08-03T05:27:12;19.70;99.90
52167;DHT22;38149;52.666;6.428;2022-08-03T05:29:47;19.70;99.90
52167;DHT22;38149;52.666;6.428;2022-08-03T05:32:15;19.70;99.90
52167;DHT22;38149;52.666;6.428;2022-08-03T05:34:41;19.80;99.90
52167;DHT22;38149;52.666;6.428;2022-08-03T05:37:08;19.80;99.90
52167;DHT22;38149;52.666;6.428;2022-08-03T05:42:01;19.90;99.90
52167;DHT22;38149;52.666;6.428;2022-08-03T05:44:26;19.90;99.90
52167;DHT22;38149;52.666;6.428;2022-08-03T05:46:53;20.00;99.90
52167;DHT22;38149;52.666;6.428;2022-08-03T05:49:19;20.00;99.90
52167;DHT22;38149;52.666;6.428;2022-08-03T05:51:45;20.10;99.90
52167;DHT22;38149;52.666;6.428;2022-08-03T05:54:11;20.00;99.90
52167;DHT22;38149;52.666;6.428;2022-08-03T05:56:37;20.10;99.90
52167;DHT22;38149;52.666;6.428;2022-08-03T05:59:05;20.10;99.90
52167;DHT22;38149;52.666;6.428;2022-08-03T06:01:31;20.10;99.90
52167;DHT22;38149;52.666;6.428;2022-08-03T06:03:57;20.20;99.90
52167;DHT22;38149;52.666;6.428;2022-08-03T06:06:23;20.20;99.90
52167;DHT22;38149;52.666;6.428;2022-08-03T06:08:49;20.30;99.90
52167;DHT22;38149;52.666;6.428;2022-08-03T06:11:15;20.30;99.90
52167;DHT22;38149;52.666;6.428;2022-08-03T06:13:41;20.30;99.90
52167;DHT22;38149;52.666;6.428;2022-08-03T06:16:08;20.30;99.90
52167;DHT22;38149;52.666;6.428;2022-08-03T06:18:34;20.40;99.90
52167;DHT22;38149;52.666;6.428;2022-08-03T06:21:00;20.40;99.90
52167;DHT22;38149;52.666;6.428;2022-08-03T06:23:26;20.40;99.90
52167;DHT22;38149;52.666;6.428;2022-08-03T06:25:52;20.50;99.90
52167;DHT22;38149;52.666;6.428;2022-08-03T06:28:17;20.50;99.90
52167;DHT22;38149;52.666;6.428;2022-08-03T06:30:44;20.50;99.90
52167;DHT22;38149;52.666;6.428;2022-08-03T06:33:10;20.60;99.90
52167;DHT22;38149;52.666;6.428;2022-08-03T06:35:36;20.70;99.90
52167;DHT22;38149;52.666;6.428;2022-08-03T06:38:01;20.70;99.90
52167;DHT22;38149;52.666;6.428;2022-08-03T06:40:27;20.70;99.90
52167;DHT22;38149;52.666;6.428;2022-08-03T06:42:58;20.80;99.90
52167;DHT22;38149;52.666;6.428;2022-08-03T06:45:26;20.80;99.90
52167;DHT22;38149;52.666;6.428;2022-08-03T06:48:19;20.80;99.90
52167;DHT22;38149;52.666;6.428;2022-08-03T06:50:45;20.90;99.90
52167;DHT22;38149;52.666;6.428;2022-08-03T06:53:11;20.90;99.90
52167;DHT22;38149;52.666;6.428;2022-08-03T06:58:02;21.00;99.90
52167;DHT22;38149;52.666;6.428;2022-08-03T07:00:29;21.00;99.90
52167;DHT22;38149;52.666;6.428;2022-08-03T07:02:55;21.00;99.90
52167;DHT22;38149;52.666;6.428;2022-08-03T07:05:21;21.10;99.90
52167;DHT22;38149;52.666;6.428;2022-08-03T07:07:47;21.10;99.90
52167;DHT22;38149;52.666;6.428;2022-08-03T07:10:13;21.20;99.90
52167;DHT22;38149;52.666;6.428;2022-08-03T07:12:39;21.20;99.90
52167;DHT22;38149;52.666;6.428;2022-08-03T07:15:07;21.30;99.90
52167;DHT22;38149;52.666;6.428;2022-08-03T07:17:34;21.20;99.90
52167;DHT22;38149;52.666;6.428;2022-08-03T07:20:03;21.30;99.90
52167;DHT22;38149;52.666;6.428;2022-08-03T07:22:31;21.30;99.90
52167;DHT22;38149;52.666;6.428;2022-08-03T07:24:58;21.30;99.90
52167;DHT22;38149;52.666;6.428;2022-08-03T07:27:24;21.30;99.90
52167;DHT22;38149;52.666;6.428;2022-08-03T07:29:51;21.40;99.90
52167;DHT22;38149;52.666;6.428;2022-08-03T07:34:43;21.40;99.90
52167;DHT22;38149;52.666;6.428;2022-08-03T07:37:09;21.50;99.90
52167;DHT22;38149;52.666;6.428;2022-08-03T07:39:34;21.50;99.90
52167;DHT22;38149;52.666;6.428;2022-08-03T07:42:00;21.60;99.90
52167;DHT22;38149;52.666;6.428;2022-08-03T07:44:26;21.70;99.90
52167;DHT22;38149;52.666;6.428;2022-08-03T07:46:51;21.80;99.90
52167;DHT22;38149;52.666;6.428;2022-08-03T07:49:17;21.90;99.90
52167;DHT22;38149;52.666;6.428;2022-08-03T07:51:43;22.00;99.90
52167;DHT22;38149;52.666;6.428;2022-08-03T07:54:09;22.10;99.90
52167;DHT22;38149;52.666;6.428;2022-08-03T07:56:35;22.10;99.90
52167;DHT22;38149;52.666;6.428;2022-08-03T07:59:02;22.20;99.90
52167;DHT22;38149;52.666;6.428;2022-08-03T08:01:28;22.20;99.90
52167;DHT22;38149;52.666;6.428;2022-08-03T08:03:54;22.40;99.90
52167;DHT22;38149;52.666;6.428;2022-08-03T08:06:20;22.50;99.90
52167;DHT22;38149;52.666;6.428;2022-08-03T08:08:46;22.50;99.90
52167;DHT22;38149;52.666;6.428;2022-08-03T08:11:12;22.60;99.90
52167;DHT22;38149;52.666;6.428;2022-08-03T08:13:38;22.60;99.90
52167;DHT22;38149;52.666;6.428;2022-08-03T08:16:04;22.70;99.90
52167;DHT22;38149;52.666;6.428;2022-08-03T08:18:30;22.80;99.90
52167;DHT22;38149;52.666;6.428;2022-08-03T08:20:56;22.90;99.90
52167;DHT22;38149;52.666;6.428;2022-08-03T08:23:22;23.00;99.90
52167;DHT22;38149;52.666;6.428;2022-08-03T08:25:49;23.00;99.90
52167;DHT22;38149;52.666;6.428;2022-08-03T08:28:20;23.10;99.90
52167;DHT22;38149;52.666;6.428;2022-08-03T08:30:46;23.10;99.90
52167;DHT22;38149;52.666;6.428;2022-08-03T08:33:12;23.10;99.90
52167;DHT22;38149;52.666;6.428;2022-08-03T08:35:39;23.20;99.90
52167;DHT22;38149;52.666;6.428;2022-08-03T08:38:05;23.30;99.90
52167;DHT22;38149;52.666;6.428;2022-08-03T08:42:57;23.40;99.90
52167;DHT22;38149;52.666;6.428;2022-08-03T08:45:23;23.50;99.90
52167;DHT22;38149;52.666;6.428;2022-08-03T08:47:49;23.60;99.90
52167;DHT22;38149;52.666;6.428;2022-08-03T08:50:18;23.60;99.90
52167;DHT22;38149;52.666;6.428;2022-08-03T08:55:21;23.80;99.90
52167;DHT22;38149;52.666;6.428;2022-08-03T08:57:51;23.90;99.90
52167;DHT22;38149;52.666;6.428;2022-08-03T09:00:26;24.00;99.90
52167;DHT22;38149;52.666;6.428;2022-08-03T09:02:52;24.10;99.90
52167;DHT22;38149;52.666;6.428;2022-08-03T09:05:18;24.20;99.90
52167;DHT22;38149;52.666;6.428;2022-08-03T09:07:46;24.20;99.90
52167;DHT22;38149;52.666;6.428;2022-08-03T09:10:14;24.20;99.90
52167;DHT22;38149;52.666;6.428;2022-08-03T09:12:45;24.30;99.90
52167;DHT22;38149;52.666;6.428;2022-08-03T10:52:59;27.00;99.90
52167;DHT22;38149;52.666;6.428;2022-08-03T10:58:45;27.10;99.90
52167;DHT22;38149;52.666;6.428;2022-08-03T11:01:12;27.10;99.90
52167;DHT22;38149;52.666;6.428;2022-08-03T11:06:23;27.30;99.90
52167;DHT22;38149;52.666;6.428;2022-08-03T11:11:39;27.50;99.90
52167;DHT22;38149;52.666;6.428;2022-08-03T11:16:47;27.50;99.90
52167;DHT22;38149;52.666;6.428;2022-08-03T11:19:19;27.20;99.90
52167;DHT22;38149;52.666;6.428;2022-08-03T11:38:04;28.10;99.90
52167;DHT22;38149;52.666;6.428;2022-08-03T11:40:35;28.00;99.90
52167;DHT22;38149;52.666;6.428;2022-08-03T11:46:20;28.20;99.90
52167;DHT22;38149;52.666;6.428;2022-08-03T11:48:48;28.30;99.90
52167;DHT22;38149;52.666;6.428;2022-08-03T11:51:33;28.20;99.90
52167;DHT22;38149;52.666;6.428;2022-08-03T11:54:01;28.40;99.90
52167;DHT22;38149;52.666;6.428;2022-08-03T11:56:48;28.50;99.90
52167;DHT22;38149;52.666;6.428;2022-08-03T11:59:15;28.60;99.90
52167;DHT22;38149;52.666;6.428;2022-08-03T12:01:42;28.50;99.90
52167;DHT22;38149;52.666;6.428;2022-08-03T12:04:10;28.60;99.90
52167;DHT22;38149;52.666;6.428;2022-08-03T12:06:36;28.70;99.90
52167;DHT22;38149;52.666;6.428;2022-08-03T12:09:20;28.60;99.90
52167;DHT22;38149;52.666;6.428;2022-08-03T12:11:50;28.90;99.90
52167;DHT22;38149;52.666;6.428;2022-08-03T12:14:17;28.90;99.90
52167;DHT22;38149;52.666;6.428;2022-08-03T12:16:47;29.00;99.90
52167;DHT22;38149;52.666;6.428;2022-08-03T12:19:13;28.90;99.90
52167;DHT22;38149;52.666;6.428;2022-08-03T12:21:49;29.10;99.90
52167;DHT22;38149;52.666;6.428;2022-08-03T12:24:16;29.10;99.90
52167;DHT22;38149;52.666;6.428;2022-08-03T12:26:49;28.90;99.90
52167;DHT22;38149;52.666;6.428;2022-08-03T12:29:19;29.30;99.90
52167;DHT22;38149;52.666;6.428;2022-08-03T12:31:47;29.90;99.90
52167;DHT22;38149;52.666;6.428;2022-08-03T12:34:14;29.30;99.90
52167;DHT22;38149;52.666;6.428;2022-08-03T12:36:53;29.60;99.90
52167;DHT22;38149;52.666;6.428;2022-08-03T12:39:25;29.40;99.90
52167;DHT22;38149;52.666;6.428;2022-08-03T12:41:55;29.40;99.90
52167;DHT22;38149;52.666;6.428;2022-08-03T12:44:32;29.10;99.90
52167;DHT22;38149;52.666;6.428;2022-08-03T12:47:00;29.50;99.90
52167;DHT22;38149;52.666;6.428;2022-08-03T12:49:27;29.60;99.90
52167;DHT22;38149;52.666;6.428;2022-08-03T12:54:28;29.70;99.90
52167;DHT22;38149;52.666;6.428;2022-08-03T12:57:05;29.70;99.90
52167;DHT22;38149;52.666;6.428;2022-08-03T12:59:40;29.80;99.90
52167;DHT22;38149;52.666;6.428;2022-08-03T13:02:20;29.90;99.90
52167;DHT22;38149;52.666;6.428;2022-08-03T13:07:15;29.80;99.90
52167;DHT22;38149;52.666;6.428;2022-08-03T13:09:45;29.90;99.40
52167;DHT22;38149;52.666;6.428;2022-08-03T13:12:15;29.90;99.30
52167;DHT22;38149;52.666;6.428;2022-08-03T13:14:44;30.00;99.30
52167;DHT22;38149;52.666;6.428;2022-08-03T13:17:11;30.60;99.90
52167;DHT22;38149;52.666;6.428;2022-08-03T13:19:38;30.10;99.90
52167;DHT22;38149;52.666;6.428;2022-08-03T13:22:16;31.00;99.90
52167;DHT22;38149;52.666;6.428;2022-08-03T13:27:13;30.20;99.00
52167;DHT22;38149;52.666;6.428;2022-08-03T13:29:39;30.30;98.10
52167;DHT22;38149;52.666;6.428;2022-08-03T13:32:07;30.30;99.30
52167;DHT22;38149;52.666;6.428;2022-08-03T13:34:34;30.40;99.90
52167;DHT22;38149;52.666;6.428;2022-08-03T13:37:00;30.40;99.90
52167;DHT22;38149;52.666;6.428;2022-08-03T13:39:25;30.50;99.90
52167;DHT22;38149;52.666;6.428;2022-08-03T13:41:51;30.50;99.90
52167;DHT22;38149;52.666;6.428;2022-08-03T13:44:18;30.60;99.90
52167;DHT22;38149;52.666;6.428;2022-08-03T13:46:44;30.60;99.90
52167;DHT22;38149;52.666;6.428;2022-08-03T13:49:10;30.40;99.90
52167;DHT22;38149;52.666;6.428;2022-08-03T13:51:36;30.70;99.90
52167;DHT22;38149;52.666;6.428;2022-08-03T13:54:03;30.70;99.90
52167;DHT22;38149;52.666;6.428;2022-08-03T13:56:29;30.80;99.90
52167;DHT22;38149;52.666;6.428;2022-08-03T13:58:56;30.80;99.90
52167;DHT22;38149;52.666;6.428;2022-08-03T14:01:22;30.90;99.90
52167;DHT22;38149;52.666;6.428;2022-08-03T14:03:48;31.10;99.90
52167;DHT22;38149;52.666;6.428;2022-08-03T14:06:17;31.00;99.90
52167;DHT22;38149;52.666;6.428;2022-08-03T14:08:43;31.10;99.90
52167;DHT22;38149;52.666;6.428;2022-08-03T14:13:37;30.70;99.90
52167;DHT22;38149;52.666;6.428;2022-08-03T14:16:03;31.20;99.90
52167;DHT22;38149;52.666;6.428;2022-08-03T14:18:29;31.10;99.90
52167;DHT22;38149;52.666;6.428;2022-08-03T14:20:56;31.00;99.90
52167;DHT22;38149;52.666;6.428;2022-08-03T14:30:54;31.10;99.90
52167;DHT22;38149;52.666;6.428;2022-08-03T14:43:12;31.00;99.90
52167;DHT22;38149;52.666;6.428;2022-08-03T14:45:39;31.00;99.90
52167;DHT22;38149;52.666;6.428;2022-08-03T14:48:05;31.00;99.90
52167;DHT22;38149;52.666;6.428;2022-08-03T14:55:26;30.70;99.90
52167;DHT22;38149;52.666;6.428;2022-08-03T15:39:20;31.30;93.90
52167;DHT22;38149;52.666;6.428;2022-08-03T15:41:46;31.30;93.90
52167;DHT22;38149;52.666;6.428;2022-08-03T15:44:11;31.30;94.00
52167;DHT22;38149;52.666;6.428;2022-08-03T15:46:37;31.40;96.60
52167;DHT22;38149;52.666;6.428;2022-08-03T15:49:03;31.40;97.00
52167;DHT22;38149;52.666;6.428;2022-08-03T15:51:28;31.50;99.90
52167;DHT22;38149;52.666;6.428;2022-08-03T15:56:22;31.60;99.90
52167;DHT22;38149;52.666;6.428;2022-08-03T15:58:47;31.70;99.90
52167;DHT22;38149;52.666;6.428;2022-08-03T16:01:13;31.70;92.00
52167;DHT22;38149;52.666;6.428;2022-08-03T16:03:39;31.70;91.70
52167;DHT22;38149;52.666;6.428;2022-08-03T16:06:06;31.70;91.70
52167;DHT22;38149;52.666;6.428;2022-08-03T16:08:33;31.70;91.80
52167;DHT22;38149;52.666;6.428;2022-08-03T16:10:59;31.70;91.90
52167;DHT22;38149;52.666;6.428;2022-08-03T16:13:26;31.80;91.80
52167;DHT22;38149;52.666;6.428;2022-08-03T16:15:52;31.90;91.90
52167;DHT22;38149;52.666;6.428;2022-08-03T16:18:19;31.60;94.80
52167;DHT22;38149;52.666;6.428;2022-08-03T16:20:45;31.90;93.10
52167;DHT22;38149;52.666;6.428;2022-08-03T16:23:11;32.00;92.80
52167;DHT22;38149;52.666;6.428;2022-08-03T16:25:39;32.00;95.00
52167;DHT22;38149;52.666;6.428;2022-08-03T16:28:06;32.00;95.90
52167;DHT22;38149;52.666;6.428;2022-08-03T16:30:32;32.00;95.50
52167;DHT22;38149;52.666;6.428;2022-08-03T16:32:57;32.60;96.30
52167;DHT22;38149;52.666;6.428;2022-08-03T16:35:23;31.80;94.10
52167;DHT22;38149;52.666;6.428;2022-08-03T16:37:49;31.90;97.40
52167;DHT22;38149;52.666;6.428;2022-08-03T16:40:15;31.90;98.20
52167;DHT22;38149;52.666;6.428;2022-08-03T16:42:41;31.90;94.50
52167;DHT22;38149;52.666;6.428;2022-08-03T16:45:07;31.80;96.50
52167;DHT22;38149;52.666;6.428;2022-08-03T16:47:34;31.70;92.70
52167;DHT22;38149;52.666;6.428;2022-08-03T16:50:00;31.50;93.30
52167;DHT22;38149;52.666;6.428;2022-08-03T16:52:25;31.40;91.80
52167;DHT22;38149;52.666;6.428;2022-08-03T16:54:52;31.50;94.90
52167;DHT22;38149;52.666;6.428;2022-08-03T16:57:19;31.50;96.30
52167;DHT22;38149;52.666;6.428;2022-08-03T16:59:46;31.40;93.60
52167;DHT22;38149;52.666;6.428;2022-08-03T17:02:19;31.40;95.30
52167;DHT22;38149;52.666;6.428;2022-08-03T17:07:24;31.20;91.90
52167;DHT22;38149;52.666;6.428;2022-08-03T17:09:49;31.00;91.70
52167;DHT22;38149;52.666;6.428;2022-08-03T17:12:15;30.90;93.20
52167;DHT22;38149;52.666;6.428;2022-08-03T17:14:44;30.90;91.60
52167;DHT22;38149;52.666;6.428;2022-08-03T17:17:22;30.70;91.60
52167;DHT22;38149;52.666;6.428;2022-08-03T17:20:09;30.90;92.00
52167;DHT22;38149;52.666;6.428;2022-08-03T17:22:40;30.70;92.20
52167;DHT22;38149;52.666;6.428;2022-08-03T17:25:12;30.80;92.10
52167;DHT22;38149;52.666;6.428;2022-08-03T17:27:38;30.60;94.30
52167;DHT22;38149;52.666;6.428;2022-08-03T17:30:08;30.50;92.00
52167;DHT22;38149;52.666;6.428;2022-08-03T17:32:42;30.40;97.80
52167;DHT22;38149;52.666;6.428;2022-08-03T17:35:11;30.30;92.20
52167;DHT22;38149;52.666;6.428;2022-08-03T17:37:56;30.30;95.40
52167;DHT22;38149;52.666;6.428;2022-08-03T17:40:22;30.20;95.70
52167;DHT22;38149;52.666;6.428;2022-08-03T17:42:51;30.00;91.90
52167;DHT22;38149;52.666;6.428;2022-08-03T17:45:17;30.00;92.10
52167;DHT22;38149;52.666;6.428;2022-08-03T17:47:42;29.90;92.10
52167;DHT22;38149;52.666;6.428;2022-08-03T17:50:09;29.90;92.30
52167;DHT22;38149;52.666;6.428;2022-08-03T17:52:40;29.90;92.30
52167;DHT22;38149;52.666;6.428;2022-08-03T17:55:16;29.80;92.50
52167;DHT22;38149;52.666;6.428;2022-08-03T17:57:48;29.70;92.50
52167;DHT22;38149;52.666;6.428;2022-08-03T18:00:18;29.70;92.60
52167;DHT22;38149;52.666;6.428;2022-08-03T18:03:25;29.60;92.70
52167;DHT22;38149;52.666;6.428;2022-08-03T18:14:06;29.50;99.90
52167;DHT22;38149;52.666;6.428;2022-08-03T18:16:44;29.30;98.80
52167;DHT22;38149;52.666;6.428;2022-08-03T18:19:11;29.30;99.50
52167;DHT22;38149;52.666;6.428;2022-08-03T18:24:05;29.30;99.90
52167;DHT22;38149;52.666;6.428;2022-08-03T18:26:32;29.40;99.90
52167;DHT22;38149;52.666;6.428;2022-08-03T18:29:02;29.20;99.90
52167;DHT22;38149;52.666;6.428;2022-08-03T18:33:59;29.00;99.90
52167;DHT22;38149;52.666;6.428;2022-08-03T18:36:27;29.00;99.90
52167;DHT22;38149;52.666;6.428;2022-08-03T18:38:57;29.20;99.90
52167;DHT22;38149;52.666;6.428;2022-08-03T18:43:52;29.00;99.90
52167;DHT22;38149;52.666;6.428;2022-08-03T18:47:14;28.90;99.90
52167;DHT22;38149;52.666;6.428;2022-08-03T18:49:56;29.30;99.90
52167;DHT22;38149;52.666;6.428;2022-08-03T19:00:44;28.70;99.90
52167;DHT22;38149;52.666;6.428;2022-08-03T19:03:35;28.70;99.10
52167;DHT22;38149;52.666;6.428;2022-08-03T19:06:07;28.70;99.00
52167;DHT22;38149;52.666;6.428;2022-08-03T19:08:40;28.70;99.90
52167;DHT22;38149;52.666;6.428;2022-08-03T19:14:13;28.50;99.90
52167;DHT22;38149;52.666;6.428;2022-08-03T19:16:46;28.50;99.90
52167;DHT22;38149;52.666;6.428;2022-08-03T19:19:13;28.50;99.90
52167;DHT22;38149;52.666;6.428;2022-08-03T19:21:43;28.40;99.90
52167;DHT22;38149;52.666;6.428;2022-08-03T19:24:11;28.30;99.90
52167;DHT22;38149;52.666;6.428;2022-08-03T19:26:38;28.90;99.90
52167;DHT22;38149;52.666;6.428;2022-08-03T19:29:07;28.30;99.00
52167;DHT22;38149;52.666;6.428;2022-08-03T19:31:38;28.20;99.40
52167;DHT22;38149;52.666;6.428;2022-08-03T19:34:06;28.10;99.90
52167;DHT22;38149;52.666;6.428;2022-08-03T19:36:33;28.20;99.90
52167;DHT22;38149;52.666;6.428;2022-08-03T19:39:02;28.10;99.90
52167;DHT22;38149;52.666;6.428;2022-08-03T19:41:34;28.00;95.70
52167;DHT22;38149;52.666;6.428;2022-08-03T19:44:07;27.90;95.90
52167;DHT22;38149;52.666;6.428;2022-08-03T19:49:32;27.90;99.90
52167;DHT22;38149;52.666;6.428;2022-08-03T19:52:07;27.90;99.90
52167;DHT22;38149;52.666;6.428;2022-08-03T19:54:43;27.80;99.90
52167;DHT22;38149;52.666;6.428;2022-08-03T19:57:11;27.70;99.90
52167;DHT22;38149;52.666;6.428;2022-08-03T19:59:42;27.60;96.30